createdAt,value
2022-10-25T00:03:53.340Z,1.90
2022-10-25T00:08:54.959Z,1.52
2022-10-25T00:13:59.569Z,1.67
2022-10-25T00:19:01.171Z,1.85
2022-10-25T00:24:02.933Z,1.80
2022-10-25T00:29:04.573Z,1.48
2022-10-25T00:34:06.149Z,1.75
2022-10-25T00:39:07.815Z,1.17
2022-10-25T00:44:34.283Z,1.70
2022-10-25T00:49:35.990Z,2.08
2022-10-25T00:54:42.800Z,1.30
2022-10-25T01:04:47.719Z,1.05
2022-10-25T01:09:50.697Z,1.60
2022-10-25T01:14:53.082Z,1.20
2022-10-25T01:20:00.732Z,1.67
2022-10-25T01:25:17.448Z,1.40
2022-10-25T01:30:21.474Z,1.15
2022-10-25T01:35:30.991Z,1.23
2022-10-25T01:40:51.105Z,1.10
2022-10-25T01:46:03.710Z,1.60
2022-10-25T01:51:10.664Z,1.52
2022-10-25T01:56:19.001Z,1.45
2022-10-25T02:01:36.331Z,1.15
2022-10-25T02:06:59.368Z,1.55
2022-10-25T02:12:04.643Z,1.50
2022-10-25T02:17:16.697Z,1.40
2022-10-25T02:22:21.668Z,1.95
2022-10-25T02:27:25.057Z,1.35
2022-10-25T02:32:27.715Z,1.30
2022-10-25T02:37:29.308Z,1.33
2022-10-25T02:42:30.970Z,1.30
2022-10-25T02:47:32.565Z,1.58
2022-10-25T02:52:34.235Z,1.00
2022-10-25T02:57:37.508Z,1.20
2022-10-25T03:02:39.045Z,1.30
2022-10-25T03:07:40.618Z,1.48
2022-10-25T03:12:42.257Z,1.38
2022-10-25T03:17:43.986Z,1.15
2022-10-25T03:22:45.753Z,1.15
2022-10-25T03:27:47.741Z,1.40
2022-10-25T03:32:49.534Z,1.33
2022-10-25T03:37:52.365Z,1.65
2022-10-25T03:42:53.934Z,1.35
2022-10-25T03:47:55.494Z,1.30
2022-10-25T03:52:57.060Z,1.20
2022-10-25T03:57:59.035Z,1.20
2022-10-25T04:03:02.553Z,1.33
2022-10-25T04:08:04.694Z,1.40
2022-10-25T04:13:06.338Z,1.35
2022-10-25T04:18:07.885Z,1.25
2022-10-25T04:23:09.554Z,1.13
2022-10-25T04:28:11.097Z,1.00
2022-10-25T04:33:12.670Z,1.30
2022-10-25T04:38:14.392Z,1.38
2022-10-25T04:43:15.982Z,1.00
2022-10-25T04:48:18.365Z,0.98
2022-10-25T04:53:20.072Z,1.10
2022-10-25T04:58:21.701Z,1.00
2022-10-25T05:03:23.285Z,0.70
2022-10-25T05:08:24.884Z,0.85
2022-10-25T05:13:26.522Z,1.38
2022-10-25T05:18:28.170Z,0.98
2022-10-25T05:23:31.990Z,1.05
2022-10-25T05:28:35.720Z,1.10
2022-10-25T05:33:40.419Z,1.00
2022-10-25T05:38:42.836Z,0.80
2022-10-25T05:43:45.297Z,0.90
2022-10-25T05:48:49.102Z,1.23
2022-10-25T05:53:52.726Z,0.70
2022-10-25T05:58:57.080Z,0.95
2022-10-25T06:03:58.610Z,0.85
2022-10-25T06:09:01.323Z,1.08
2022-10-25T06:14:03.748Z,0.98
2022-10-25T06:19:05.374Z,1.23
2022-10-25T06:24:07.042Z,0.85
2022-10-25T06:29:09.553Z,0.70
2022-10-25T06:34:11.245Z,1.00
2022-10-25T06:39:12.818Z,0.77
2022-10-25T06:44:14.532Z,0.80
2022-10-25T06:49:16.131Z,0.80
2022-10-25T06:54:17.836Z,0.68
2022-10-25T06:59:20.529Z,1.02
2022-10-25T07:04:22.266Z,0.82
2022-10-25T07:09:25.336Z,0.82
2022-10-25T07:14:26.974Z,1.38
2022-10-25T07:19:28.495Z,0.90
2022-10-25T07:24:30.096Z,0.80
2022-10-25T07:29:31.679Z,0.60
2022-10-25T07:34:33.403Z,0.68
2022-10-25T07:39:35.047Z,0.90
2022-10-25T07:44:36.713Z,1.00
2022-10-25T07:49:39.963Z,0.98
2022-10-25T07:59:43.178Z,0.70
2022-10-25T08:04:44.875Z,0.90
2022-10-25T08:09:46.481Z,0.90
2022-10-25T08:14:49.792Z,0.68
2022-10-25T08:19:51.608Z,1.00
2022-10-25T08:24:53.590Z,0.88
2022-10-25T08:29:55.262Z,0.80
2022-10-25T08:34:56.987Z,0.70
2022-10-25T08:39:58.564Z,0.65
2022-10-25T08:45:11.076Z,0.90
2022-10-25T08:50:20.691Z,0.60
2022-10-25T08:55:44.551Z,0.90
2022-10-25T09:00:57.452Z,0.68
2022-10-25T09:06:20.837Z,0.93
2022-10-25T09:11:50.361Z,0.60
2022-10-25T09:16:55.749Z,0.80
2022-10-25T09:22:01.326Z,0.75
2022-10-25T09:27:09.022Z,0.60
2022-10-25T09:32:24.713Z,0.80
2022-10-25T09:37:42.098Z,0.83
2022-10-25T09:42:53.016Z,0.70
2022-10-25T09:48:06.169Z,1.13
2022-10-25T09:53:14.247Z,0.70
2022-10-25T09:58:23.970Z,0.68
2022-10-25T10:03:31.990Z,1.35
2022-10-25T10:08:35.414Z,0.80
2022-10-25T10:13:48.693Z,0.60
2022-10-25T10:18:50.285Z,0.70
2022-10-25T10:24:02.308Z,0.45
2022-10-25T10:29:15.390Z,0.73
2022-10-25T10:34:30.894Z,0.70
2022-10-25T10:39:32.714Z,0.80
2022-10-25T10:44:34.845Z,0.88
2022-10-25T10:49:40.871Z,0.50
2022-10-25T10:54:48.001Z,0.67
2022-10-25T10:59:56.418Z,0.75
2022-10-25T11:04:58.253Z,0.70
2022-10-25T11:10:15.318Z,0.80
2022-10-25T11:15:18.270Z,0.57
2022-10-25T11:20:56.914Z,0.60
2022-10-25T11:26:07.332Z,0.68
2022-10-25T11:31:12.283Z,0.60
2022-10-25T11:36:23.157Z,0.80
2022-10-25T11:41:46.107Z,0.65
2022-10-25T11:47:15.603Z,0.52
2022-10-25T11:52:35.804Z,0.90
2022-10-25T11:57:37.577Z,0.73
2022-10-25T12:03:03.317Z,0.90
2022-10-25T12:08:14.142Z,0.80
2022-10-25T12:13:19.650Z,0.50
2022-10-25T12:18:49.515Z,0.85
2022-10-25T12:23:53.508Z,0.65
2022-10-25T12:28:59.961Z,0.60
2022-10-25T12:39:36.622Z,0.70
2022-10-25T12:44:58.405Z,0.80
2022-10-25T12:50:15.301Z,0.50
2022-10-25T12:55:26.558Z,0.50
2022-10-25T13:00:37.295Z,0.70
2022-10-25T13:06:02.071Z,0.43
2022-10-25T13:11:06.801Z,0.90
2022-10-25T13:16:10.728Z,0.77
2022-10-25T13:21:15.730Z,0.65
2022-10-25T13:26:25.807Z,0.70
2022-10-25T13:31:36.674Z,0.70
2022-10-25T13:36:52.953Z,0.70
2022-10-25T13:42:02.574Z,0.47
2022-10-25T13:47:04.337Z,0.50
2022-10-25T13:52:24.893Z,0.70
2022-10-25T13:57:56.611Z,0.70
2022-10-25T14:03:10.327Z,0.70
2022-10-25T14:08:45.142Z,0.93
2022-10-25T14:14:05.276Z,0.60
2022-10-25T14:19:16.745Z,1.83
2022-10-25T14:24:19.995Z,1.10
2022-10-25T14:29:25.056Z,1.90
2022-10-25T14:34:30.150Z,1.80
2022-10-25T14:39:32.191Z,4.85
2022-10-25T14:44:50.639Z,3.63
2022-10-25T14:49:52.301Z,1.35
2022-10-25T14:55:06.127Z,3.85
2022-10-25T15:00:18.315Z,4.50
2022-10-25T15:05:22.780Z,1.00
2022-10-25T15:10:30.697Z,0.77
2022-10-25T15:15:40.660Z,0.90
2022-10-25T15:20:42.590Z,1.13
2022-10-25T15:25:44.483Z,1.60
2022-10-25T15:30:48.894Z,3.30
2022-10-25T15:35:55.697Z,3.75
2022-10-25T15:40:57.741Z,4.72
2022-10-25T15:46:00.407Z,4.45
2022-10-25T15:51:02.231Z,2.78
2022-10-25T15:56:04.345Z,1.88
2022-10-25T16:01:06.450Z,2.08
2022-10-25T16:06:11.562Z,1.70
2022-10-25T16:11:16.839Z,1.45
2022-10-25T16:16:41.061Z,1.40
2022-10-25T16:21:43.666Z,1.60
2022-10-25T16:26:48.684Z,2.50
2022-10-25T16:31:50.738Z,2.22
2022-10-25T16:36:53.084Z,2.53
2022-10-25T16:41:56.739Z,2.40
2022-10-25T16:46:59.991Z,1.77
2022-10-25T16:52:01.521Z,1.90
2022-10-25T16:57:03.150Z,1.85
2022-10-25T17:02:05.300Z,1.50
2022-10-25T17:07:06.953Z,1.50
2022-10-25T17:12:10.096Z,1.17
2022-10-25T17:17:11.835Z,1.70
2022-10-25T17:22:13.456Z,1.50
2022-10-25T17:27:14.988Z,2.83
2022-10-25T17:32:16.546Z,1.75
2022-10-25T17:37:18.064Z,1.30
2022-10-25T17:42:20.245Z,1.90
2022-10-25T17:47:21.982Z,1.83
2022-10-25T17:52:23.540Z,2.33
2022-10-25T17:57:25.130Z,2.67
2022-10-25T18:02:27.919Z,2.63
2022-10-25T18:07:32.706Z,1.80
2022-10-25T18:12:36.568Z,2.25
2022-10-25T18:17:38.099Z,2.95
2022-10-25T18:22:39.616Z,2.90
2022-10-25T18:27:41.472Z,2.50
2022-10-25T18:32:43.041Z,2.40
2022-10-25T18:37:44.584Z,2.08
2022-10-25T18:42:46.230Z,1.95
2022-10-25T18:47:53.368Z,2.55
2022-10-25T18:52:54.892Z,2.50
2022-10-25T18:57:58.762Z,2.95
2022-10-25T19:03:00.310Z,3.30
2022-10-25T19:08:01.806Z,3.08
2022-10-25T19:13:04.233Z,3.20
2022-10-25T19:18:05.928Z,3.72
2022-10-25T19:23:08.288Z,3.88
2022-10-25T19:28:10.128Z,3.65
2022-10-25T19:33:11.755Z,3.58
2022-10-25T19:38:14.476Z,3.38
2022-10-25T19:43:15.980Z,3.65
2022-10-25T19:48:17.521Z,3.53
2022-10-25T19:53:19.379Z,4.72
2022-10-25T19:58:20.891Z,4.15
2022-10-25T20:03:22.461Z,4.40
2022-10-25T20:08:23.988Z,4.13
2022-10-25T20:13:25.795Z,3.97
2022-10-25T20:18:31.964Z,4.38
2022-10-25T20:23:34.541Z,5.77
2022-10-25T20:28:36.100Z,4.07
2022-10-25T20:33:38.801Z,4.97
2022-10-25T20:38:41.138Z,4.47
2022-10-25T20:43:46.841Z,4.50
2022-10-25T20:48:48.391Z,4.93
2022-10-25T20:53:50.026Z,4.05
2022-10-25T20:58:51.979Z,5.10
2022-10-25T21:03:54.111Z,4.82
2022-10-25T21:08:55.773Z,5.32
2022-10-25T21:13:57.321Z,6.13
2022-10-25T21:19:03.217Z,5.72
2022-10-25T21:24:06.136Z,5.35
2022-10-25T21:29:07.830Z,5.70
2022-10-25T21:34:09.412Z,4.88
2022-10-25T21:39:11.027Z,4.45
2022-10-25T21:44:12.602Z,5.72
2022-10-25T21:49:14.228Z,5.30
2022-10-25T21:54:16.073Z,5.82
2022-10-25T21:59:17.721Z,5.50
2022-10-25T22:04:19.304Z,5.88
2022-10-25T22:09:20.879Z,6.78
2022-10-25T22:14:22.452Z,6.65
2022-10-25T22:24:30.681Z,6.00
2022-10-25T22:29:32.317Z,5.88
2022-10-25T22:34:33.931Z,6.50
2022-10-25T22:39:35.596Z,6.93
2022-10-25T22:44:38.571Z,5.90
2022-10-25T22:49:40.388Z,5.53
2022-10-25T22:54:42.105Z,6.35
2022-10-25T22:59:43.713Z,5.55
2022-10-25T23:04:45.342Z,6.30
2022-10-25T23:09:47.050Z,5.63
2022-10-25T23:14:48.562Z,6.32
2022-10-25T23:19:50.109Z,6.35
2022-10-25T23:24:51.740Z,6.00
2022-10-25T23:29:53.341Z,5.90
2022-10-25T23:34:57.019Z,5.55
2022-10-25T23:39:58.824Z,5.75
2022-10-25T23:45:03.205Z,5.90
2022-10-25T23:50:05.400Z,6.43
2022-10-25T23:55:07.654Z,4.93
